CMA CGM Thalassa — 5BNE2 — position and weather

sailwx.info

Track history (hours):
 
Tides and Currents Weather Stations Pressure Air Temp Water Temp Dewpoint Dewpoint Depression Visibility Wind Speed Wind Dir Waves Ship Positions

CMA CGM Thalassa

Last reported at 2017-Nov-09 04:49 UTC. Time now 2017-Nov-22 03:33 UTC.
Position N 22°53' E 119°55'.
Warning: this ship's position is 12 days out of date.

Length 347 m; draft 13.3 m.

Type: Ship. MMSI: 212151000.

Date/timePositionNaut miles runAvg speedWind from/ knotsBaromVisibWave heightAir tempDewpointWater temp
2017-Nov-09 04:49N 22°53' E 119°55'618.6
2017-Nov-09 04:30N 22°49' E 119°58'1019.3
2017-Nov-09 04:00N 22°41' E 120°05'918.8
2017-Nov-09 03:30N 22°34' E 120°11'713.8
2017-Nov-09 03:00N 22°33' E 120°19'0 1.0
2017-Nov-09 02:30N 22°34' E 120°19'0 0.0
2017-Nov-08 14:42N 22°34' E 120°19'0 1.0
2017-Nov-08 14:30N 22°33' E 120°19'3 6.4
2017-Nov-08 14:00N 22°32' E 120°16'1 1.4
2017-Nov-08 13:30N 22°32' E 120°15'1 2.5
2017-Nov-08 13:00N 22°32' E 120°14'4 8.8
2017-Nov-08 12:30N 22°31' E 120°09'815.6
2017-Nov-08 12:00N 22°30' E 120°01'25618.9
2017-Nov-07 22:29N 22°11' E 115°25'1018.3
2017-Nov-07 21:56N 22°10' E 115°14'818.7
2017-Nov-07 21:30N 22°09' E 115°06'1019.1
2017-Nov-07 21:01N 22°08' E 114°56'1019.5
2017-Nov-07 20:30N 22°08' E 114°45'1019.7
2017-Nov-07 20:00N 22°07' E 114°35'1019.4
2017-Nov-07 19:30N 22°07' E 114°24'1115.7
2017-Nov-07 18:50N 22°09' E 114°13'514.5
2017-Nov-07 18:30N 22°13' E 114°10'22 0.5
2017-Nov-06 02:31N 22°28' E 113°53'0 0.0
2017-Nov-06 02:01N 22°28' E 113°53'0 0.0
2017-Nov-06 01:31N 22°28' E 113°53'0 0.0
2017-Nov-06 01:01N 22°28' E 113°53'0 0.0
2017-Nov-06 00:31N 22°28' E 113°53'0 0.0
2017-Nov-06 00:01N 22°28' E 113°53'0 0.0
2017-Nov-05 23:31N 22°28' E 113°53'0 0.0
2017-Nov-05 23:01N 22°28' E 113°53'0 0.0
2017-Nov-05 22:31N 22°28' E 113°53'0 0.0
2017-Nov-05 22:01N 22°28' E 113°53'0 0.0
2017-Nov-05 21:31N 22°28' E 113°53'0 0.0
2017-Nov-05 21:01N 22°28' E 113°53'0 0.0
2017-Nov-05 20:31N 22°28' E 113°53'0 0.0
2017-Nov-05 20:01N 22°28' E 113°53'0 0.0
2017-Nov-05 19:31N 22°28' E 113°53'0 0.0
2017-Nov-05 19:01N 22°28' E 113°53'0 0.0
2017-Nov-05 18:31N 22°28' E 113°53'0 0.0
2017-Nov-05 18:01N 22°28' E 113°53'0 0.0
2017-Nov-05 17:31N 22°28' E 113°53'0 0.0
2017-Nov-05 17:01N 22°28' E 113°53'0 0.0
2017-Nov-05 16:31N 22°28' E 113°53'0 0.0
2017-Nov-05 16:01N 22°28' E 113°53'0 0.0
2017-Nov-05 15:30N 22°28' E 113°53'0 0.0
2017-Nov-05 15:01N 22°28' E 113°53'0 0.7
2017-Nov-05 14:31N 22°27' E 113°53'3 6.6
2017-Nov-05 14:00N 22°24' E 113°53'1 2.9
2017-Nov-05 13:30N 22°23' E 113°54'4 7.4
2017-Nov-05 12:59N 22°21' E 113°58'1110.4
2017-Nov-05 11:54N 22°15' E 114°08'6 9.5
2017-Nov-05 11:16N 22°10' E 114°12'4 9.4
2017-Nov-05 10:53N 22°08' E 114°15'512.5
2017-Nov-05 10:30N 22°08' E 114°21'714.8
2017-Nov-05 10:01N 22°07' E 114°28'714.7
2017-Nov-05 09:31N 22°08' E 114°36'714.7
2017-Nov-05 09:00N 22°08' E 114°44'714.5
2017-Nov-05 08:31N 22°09' E 114°52'714.6
2017-Nov-05 08:01N 22°09' E 114°60'914.8
2017-Nov-05 07:25N 22°10' E 115°09'615.1
2017-Nov-05 06:59N 22°10' E 115°16'18314.6
2017-Nov-04 18:25N 23°44' E 118°07'715.4
2017-Nov-04 17:58N 23°50' E 118°11'715.0
2017-Nov-04 17:30N 23°55' E 118°16'715.2
2017-Nov-04 17:01N 24°02' E 118°20'612.9
2017-Nov-04 16:30N 24°08' E 118°20'714.3
2017-Nov-04 16:00N 24°14' E 118°16'713.7
2017-Nov-04 15:30N 24°20' E 118°11'510.5
2017-Nov-04 15:01N 24°23' E 118°07'5 9.6
2017-Nov-04 14:31N 24°26' E 118°02'1 2.7
2017-Nov-04 14:01N 24°27' E 118°01'0 0.0
2017-Nov-04 13:31N 24°27' E 118°01'0 0.0
2017-Nov-04 13:00N 24°27' E 118°01'0 0.0
2017-Nov-04 12:31N 24°27' E 118°01'0 0.0
2017-Nov-04 12:01N 24°27' E 118°01'0 0.0
2017-Nov-04 11:31N 24°27' E 118°01'0 0.0
2017-Nov-04 11:01N 24°27' E 118°01'0 0.0
2017-Nov-04 10:31N 24°27' E 118°01'0 0.0
2017-Nov-04 10:00N 24°27' E 118°01'0 0.0
2017-Nov-04 09:31N 24°27' E 118°01'0 0.0
2017-Nov-04 09:00N 24°27' E 118°01'0 0.0
2017-Nov-04 08:31N 24°27' E 118°01'0 0.0
2017-Nov-04 08:01N 24°27' E 118°01'0 0.0
2017-Nov-04 07:31N 24°27' E 118°01'0 0.0
2017-Nov-04 07:01N 24°27' E 118°01'0 0.0
2017-Nov-04 06:31N 24°27' E 118°01'0 0.0
2017-Nov-04 06:01N 24°27' E 118°01'0 0.0
2017-Nov-04 05:31N 24°27' E 118°01'0 0.0
2017-Nov-04 05:01N 24°27' E 118°01'0 0.0
2017-Nov-04 04:31N 24°27' E 118°01'0 0.0
2017-Nov-04 04:01N 24°27' E 118°01'0 0.0
2017-Nov-04 03:31N 24°27' E 118°01'0 0.0
2017-Nov-04 03:00N 24°27' E 118°01'0 0.0
2017-Nov-04 02:31N 24°27' E 118°01'0 0.0
2017-Nov-04 02:01N 24°27' E 118°01'0 0.0
2017-Nov-04 01:31N 24°27' E 118°01'0 0.0
2017-Nov-04 01:00N 24°27' E 118°01'0 0.0
2017-Nov-04 00:31N 24°27' E 118°01'0 0.0
2017-Nov-04 00:01N 24°27' E 118°01'0 0.0
2017-Nov-03 23:30N 24°27' E 118°01'0 0.0
2017-Nov-03 23:01N 24°27' E 118°01'0 0.0
2017-Nov-03 22:31N 24°27' E 118°01'0 0.0
2017-Nov-03 22:01N 24°27' E 118°01'0 0.0
2017-Nov-03 21:31N 24°27' E 118°01'0 0.0
2017-Nov-03 21:01N 24°27' E 118°01'1 1.6
2017-Nov-03 20:31N 24°26' E 118°02'510.8
2017-Nov-03 20:01N 24°24' E 118°07'4 7.8
2017-Nov-03 19:31N 24°21' E 118°10'612.9
2017-Nov-03 19:01N 24°16' E 118°15'714.3
2017-Nov-03 18:31N 24°12' E 118°21'917.4
2017-Nov-03 18:01N 24°09' E 118°30'1019.6
2017-Nov-03 17:30N 24°09' E 118°41'43619.3
2017-Nov-02 18:58N 30°26' E 122°47'919.3
2017-Nov-02 18:30N 30°29' E 122°37'918.0
2017-Nov-02 18:00N 30°31' E 122°27'1019.1
2017-Nov-02 17:30N 30°33' E 122°16'815.2
2017-Nov-02 17:00N 30°35' E 122°08'4 8.7
2017-Nov-02 16:30N 30°37' E 122°03'0 0.1
2017-Nov-02 16:00N 30°37' E 122°03'0 0.0
2017-Nov-02 15:30N 30°37' E 122°03'0 0.0
2017-Nov-02 14:59N 30°37' E 122°03'0 0.0
2017-Nov-02 14:30N 30°37' E 122°03'0 0.0
2017-Nov-02 11:46N 30°37' E 122°03'0 0.0
2017-Nov-02 11:30N 30°37' E 122°03'0 0.0
2017-Nov-02 10:43N 30°37' E 122°03'0 0.0
2017-Nov-02 09:49N 30°37' E 122°03'0 0.0
2017-Nov-02 06:33N 30°37' E 122°03'0 0.0
2017-Nov-02 06:29N 30°37' E 122°03'0 0.0
2017-Nov-01 23:41N 30°37' E 122°03'0 0.0
2017-Nov-01 23:30N 30°37' E 122°03'0 0.0
2017-Nov-01 22:58N 30°37' E 122°03'71 1.4
2017-Oct-30 19:19N 30°46' E 123°26'22 8.8
2017-Oct-30 16:49N 30°59' E 123°46'  
Track history (hours):
 
Tides and Currents Weather Stations Pressure Air Temp Water Temp Dewpoint Dewpoint Depression Visibility Wind Speed Wind Dir Waves Ship Positions

CMA CGM Thalassa

Last reported at 2017-Nov-09 04:49 UTC. Time now 2017-Nov-22 03:33 UTC.
Position N 22°53' E 119°55'.
Warning: this ship's position is 12 days out of date.

Length 347 m; draft 13.3 m.

Type: Ship. MMSI: 212151000.

Date/timePositionNaut miles runAvg speedWind from/ knotsBaromVisibWave heightAir tempDewpointWater temp
2017-Nov-09 04:49N 22°53' E 119°55'618.6
2017-Nov-09 04:30N 22°49' E 119°58'1019.3
2017-Nov-09 04:00N 22°41' E 120°05'918.8
2017-Nov-09 03:30N 22°34' E 120°11'713.8
2017-Nov-09 03:00N 22°33' E 120°19'0 1.0
2017-Nov-09 02:30N 22°34' E 120°19'0 0.0
2017-Nov-08 14:42N 22°34' E 120°19'0 1.0
2017-Nov-08 14:30N 22°33' E 120°19'3 6.4
2017-Nov-08 14:00N 22°32' E 120°16'1 1.4
2017-Nov-08 13:30N 22°32' E 120°15'1 2.5
2017-Nov-08 13:00N 22°32' E 120°14'4 8.8
2017-Nov-08 12:30N 22°31' E 120°09'815.6
2017-Nov-08 12:00N 22°30' E 120°01'25618.9
2017-Nov-07 22:29N 22°11' E 115°25'1018.3
2017-Nov-07 21:56N 22°10' E 115°14'818.7
2017-Nov-07 21:30N 22°09' E 115°06'1019.1
2017-Nov-07 21:01N 22°08' E 114°56'1019.5
2017-Nov-07 20:30N 22°08' E 114°45'1019.7
2017-Nov-07 20:00N 22°07' E 114°35'1019.4
2017-Nov-07 19:30N 22°07' E 114°24'1115.7
2017-Nov-07 18:50N 22°09' E 114°13'514.5
2017-Nov-07 18:30N 22°13' E 114°10'22 0.5
2017-Nov-06 02:31N 22°28' E 113°53'0 0.0
2017-Nov-06 02:01N 22°28' E 113°53'0 0.0
2017-Nov-06 01:31N 22°28' E 113°53'0 0.0
2017-Nov-06 01:01N 22°28' E 113°53'0 0.0
2017-Nov-06 00:31N 22°28' E 113°53'0 0.0
2017-Nov-06 00:01N 22°28' E 113°53'0 0.0
2017-Nov-05 23:31N 22°28' E 113°53'0 0.0
2017-Nov-05 23:01N 22°28' E 113°53'0 0.0
2017-Nov-05 22:31N 22°28' E 113°53'0 0.0
2017-Nov-05 22:01N 22°28' E 113°53'0 0.0
2017-Nov-05 21:31N 22°28' E 113°53'0 0.0
2017-Nov-05 21:01N 22°28' E 113°53'0 0.0
2017-Nov-05 20:31N 22°28' E 113°53'0 0.0
2017-Nov-05 20:01N 22°28' E 113°53'0 0.0
2017-Nov-05 19:31N 22°28' E 113°53'0 0.0
2017-Nov-05 19:01N 22°28' E 113°53'0 0.0
2017-Nov-05 18:31N 22°28' E 113°53'0 0.0
2017-Nov-05 18:01N 22°28' E 113°53'0 0.0
2017-Nov-05 17:31N 22°28' E 113°53'0 0.0
2017-Nov-05 17:01N 22°28' E 113°53'0 0.0
2017-Nov-05 16:31N 22°28' E 113°53'0 0.0
2017-Nov-05 16:01N 22°28' E 113°53'0 0.0
2017-Nov-05 15:30N 22°28' E 113°53'0 0.0
2017-Nov-05 15:01N 22°28' E 113°53'0 0.7
2017-Nov-05 14:31N 22°27' E 113°53'3 6.6
2017-Nov-05 14:00N 22°24' E 113°53'1 2.9
2017-Nov-05 13:30N 22°23' E 113°54'4 7.4
2017-Nov-05 12:59N 22°21' E 113°58'1110.4
2017-Nov-05 11:54N 22°15' E 114°08'6 9.5
2017-Nov-05 11:16N 22°10' E 114°12'4 9.4
2017-Nov-05 10:53N 22°08' E 114°15'512.5
2017-Nov-05 10:30N 22°08' E 114°21'714.8
2017-Nov-05 10:01N 22°07' E 114°28'714.7
2017-Nov-05 09:31N 22°08' E 114°36'714.7
2017-Nov-05 09:00N 22°08' E 114°44'714.5
2017-Nov-05 08:31N 22°09' E 114°52'714.6
2017-Nov-05 08:01N 22°09' E 114°60'914.8
2017-Nov-05 07:25N 22°10' E 115°09'615.1
2017-Nov-05 06:59N 22°10' E 115°16'18314.6
2017-Nov-04 18:25N 23°44' E 118°07'715.4
2017-Nov-04 17:58N 23°50' E 118°11'715.0
2017-Nov-04 17:30N 23°55' E 118°16'715.2
2017-Nov-04 17:01N 24°02' E 118°20'612.9
2017-Nov-04 16:30N 24°08' E 118°20'714.3
2017-Nov-04 16:00N 24°14' E 118°16'713.7
2017-Nov-04 15:30N 24°20' E 118°11'510.5
2017-Nov-04 15:01N 24°23' E 118°07'5 9.6
2017-Nov-04 14:31N 24°26' E 118°02'1 2.7
2017-Nov-04 14:01N 24°27' E 118°01'0 0.0
2017-Nov-04 13:31N 24°27' E 118°01'0 0.0
2017-Nov-04 13:00N 24°27' E 118°01'0 0.0
2017-Nov-04 12:31N 24°27' E 118°01'0 0.0
2017-Nov-04 12:01N 24°27' E 118°01'0 0.0
2017-Nov-04 11:31N 24°27' E 118°01'0 0.0
2017-Nov-04 11:01N 24°27' E 118°01'0 0.0
2017-Nov-04 10:31N 24°27' E 118°01'0 0.0
2017-Nov-04 10:00N 24°27' E 118°01'0 0.0
2017-Nov-04 09:31N 24°27' E 118°01'0 0.0
2017-Nov-04 09:00N 24°27' E 118°01'0 0.0
2017-Nov-04 08:31N 24°27' E 118°01'0 0.0
2017-Nov-04 08:01N 24°27' E 118°01'0 0.0
2017-Nov-04 07:31N 24°27' E 118°01'0 0.0
2017-Nov-04 07:01N 24°27' E 118°01'0 0.0
2017-Nov-04 06:31N 24°27' E 118°01'0 0.0
2017-Nov-04 06:01N 24°27' E 118°01'0 0.0
2017-Nov-04 05:31N 24°27' E 118°01'0 0.0
2017-Nov-04 05:01N 24°27' E 118°01'0 0.0
2017-Nov-04 04:31N 24°27' E 118°01'0 0.0
2017-Nov-04 04:01N 24°27' E 118°01'0 0.0
2017-Nov-04 03:31N 24°27' E 118°01'0 0.0
2017-Nov-04 03:00N 24°27' E 118°01'0 0.0
2017-Nov-04 02:31N 24°27' E 118°01'0 0.0
2017-Nov-04 02:01N 24°27' E 118°01'0 0.0
2017-Nov-04 01:31N 24°27' E 118°01'0 0.0
2017-Nov-04 01:00N 24°27' E 118°01'0 0.0
2017-Nov-04 00:31N 24°27' E 118°01'0 0.0
2017-Nov-04 00:01N 24°27' E 118°01'0 0.0
2017-Nov-03 23:30N 24°27' E 118°01'0 0.0
2017-Nov-03 23:01N 24°27' E 118°01'0 0.0
2017-Nov-03 22:31N 24°27' E 118°01'0 0.0
2017-Nov-03 22:01N 24°27' E 118°01'0 0.0
2017-Nov-03 21:31N 24°27' E 118°01'0 0.0
2017-Nov-03 21:01N 24°27' E 118°01'1 1.6
2017-Nov-03 20:31N 24°26' E 118°02'510.8
2017-Nov-03 20:01N 24°24' E 118°07'4 7.8
2017-Nov-03 19:31N 24°21' E 118°10'612.9
2017-Nov-03 19:01N 24°16' E 118°15'714.3
2017-Nov-03 18:31N 24°12' E 118°21'917.4
2017-Nov-03 18:01N 24°09' E 118°30'1019.6
2017-Nov-03 17:30N 24°09' E 118°41'43619.3
2017-Nov-02 18:58N 30°26' E 122°47'919.3
2017-Nov-02 18:30N 30°29' E 122°37'918.0
2017-Nov-02 18:00N 30°31' E 122°27'1019.1
2017-Nov-02 17:30N 30°33' E 122°16'815.2
2017-Nov-02 17:00N 30°35' E 122°08'4 8.7
2017-Nov-02 16:30N 30°37' E 122°03'0 0.1
2017-Nov-02 16:00N 30°37' E 122°03'0 0.0
2017-Nov-02 15:30N 30°37' E 122°03'0 0.0
2017-Nov-02 14:59N 30°37' E 122°03'0 0.0
2017-Nov-02 14:30N 30°37' E 122°03'0 0.0
2017-Nov-02 11:46N 30°37' E 122°03'0 0.0
2017-Nov-02 11:30N 30°37' E 122°03'0 0.0
2017-Nov-02 10:43N 30°37' E 122°03'0 0.0
2017-Nov-02 09:49N 30°37' E 122°03'0 0.0
2017-Nov-02 06:33N 30°37' E 122°03'0 0.0
2017-Nov-02 06:29N 30°37' E 122°03'0 0.0
2017-Nov-01 23:41N 30°37' E 122°03'0 0.0
2017-Nov-01 23:30N 30°37' E 122°03'0 0.0
2017-Nov-01 22:58N 30°37' E 122°03'71 1.4
2017-Oct-30 19:19N 30°46' E 123°26'22 8.8
2017-Oct-30 16:49N 30°59' E 123°46'  

Dump ship's entire track history